Time;durP1;ratioP1;P1;durP2;ratioP2;P2;SDS_P1;SDS_P2;PMS_P1;PMS_P2;Temp;Humidity;BMP_temperature;BMP_pressure;BME280_temperature;BME280_humidity;BME280_pressure;Samples;Min_cycle;Max_cycle;Signal;HPM_P1;HPM_P2
2022/11/22 00:02:15;;;;;;;19.27;10.27;;;;;;;3.28;47.97;99750.81;7388809;19;20026;-56
2022/11/22 00:04:41;;;;;;;21.05;10.48;;;;;;;3.22;48.08;99748.59;7390904;19;20003;-57
2022/11/22 00:07:07;;;;;;;19.77;10.30;;;;;;;3.33;47.75;99747.19;7390526;19;20007;-57
2022/11/22 00:09:32;;;;;;;20.35;10.10;;;;;;;3.23;47.93;99739.41;7391308;19;20542;-57
2022/11/22 00:11:58;;;;;;;20.73;10.88;;;;;;;3.23;48.15;99742.88;7387625;19;20105;-57
2022/11/22 00:14:24;;;;;;;19.63;10.77;;;;;;;3.27;48.01;99751.13;7390680;19;19999;-57
2022/11/22 00:16:50;;;;;;;20.50;10.23;;;;;;;3.36;47.91;99746.53;7390594;19;20002;-57
2022/11/22 00:19:16;;;;;;;21.55;10.88;;;;;;;3.30;47.99;99735.13;7387909;19;20363;-57
2022/11/22 00:21:42;;;;;;;19.90;10.40;;;;;;;3.34;47.85;99736.06;7388541;19;20002;-57
2022/11/22 00:24:10;;;;;;;21.33;10.63;;;;;;;3.31;47.78;99736.69;7390274;19;20010;-56
2022/11/22 00:26:36;;;;;;;18.33;9.73;;;;;;;3.37;47.74;99731.97;7387927;19;19999;-57
2022/11/22 00:29:02;;;;;;;21.23;10.32;;;;;;;3.43;47.89;99724.50;7390389;19;20088;-57
2022/11/22 00:31:27;;;;;;;20.42;10.02;;;;;;;3.37;48.04;99717.66;7389096;19;20014;-57
2022/11/22 00:33:53;;;;;;;19.52;10.77;;;;;;;3.30;48.07;99715.44;7389886;19;20328;-58
2022/11/22 00:36:19;;;;;;;19.80;9.65;;;;;;;3.33;48.17;99710.19;7389340;19;19998;-58
2022/11/22 00:38:44;;;;;;;20.90;11.30;;;;;;;3.33;48.11;99712.88;7388964;19;19991;-58
2022/11/22 00:41:10;;;;;;;22.20;10.50;;;;;;;3.32;47.93;99700.53;7388822;19;20002;-58
2022/11/22 00:43:36;;;;;;;19.05;10.35;;;;;;;3.32;48.04;99699.75;7388227;19;20025;-58
2022/11/22 00:46:02;;;;;;;20.45;10.45;;;;;;;3.38;47.97;99694.97;7387773;19;20054;-58
2022/11/22 00:48:28;;;;;;;19.50;10.95;;;;;;;3.34;47.92;99698.31;7389421;19;20015;-58
2022/11/22 00:50:54;;;;;;;20.30;10.00;;;;;;;3.44;48.01;99691.03;7386737;19;20014;-58
2022/11/22 00:53:21;;;;;;;20.38;9.85;;;;;;;3.29;48.18;99690.38;7392125;19;20408;-57
2022/11/22 00:55:47;;;;;;;20.25;10.82;;;;;;;3.33;48.00;99680.53;7396453;19;19995;-57
2022/11/22 00:58:13;;;;;;;20.95;10.85;;;;;;;3.30;48.05;99683.88;7395027;19;20114;-58
2022/11/22 01:00:39;;;;;;;22.83;11.60;;;;;;;3.31;48.12;99681.97;7396140;19;20050;-58
2022/11/22 01:03:04;;;;;;;22.55;11.98;;;;;;;3.35;47.83;99682.91;7394303;19;20050;-58
2022/11/22 01:05:30;;;;;;;20.42;10.65;;;;;;;3.26;48.19;99679.44;7396080;19;19998;-58
2022/11/22 01:07:55;;;;;;;22.83;11.88;;;;;;;3.25;48.29;99684.06;7395799;19;20006;-57
2022/11/22 01:10:21;;;;;;;22.25;11.40;;;;;;;3.37;48.15;99675.31;7395828;19;19998;-57
2022/11/22 01:12:47;;;;;;;21.63;11.30;;;;;;;3.38;47.85;99676.09;7397066;19;20022;-57
2022/11/22 01:15:13;;;;;;;24.58;12.15;;;;;;;3.29;48.06;99668.81;7396499;19;20009;-57
2022/11/22 01:17:39;;;;;;;23.58;12.05;;;;;;;3.19;48.47;99663.75;7396461;19;20099;-57
2022/11/22 01:20:05;;;;;;;21.70;11.50;;;;;;;3.29;48.22;99678.81;7392081;19;20010;-57
2022/11/22 01:22:31;;;;;;;23.42;11.98;;;;;;;3.22;48.23;99687.38;7396782;19;20062;-58
2022/11/22 01:24:57;;;;;;;23.60;11.95;;;;;;;3.27;48.15;99681.81;7395429;19;20357;-58
2022/11/22 01:27:23;;;;;;;24.15;11.88;;;;;;;3.21;48.33;99685.00;7397400;19;20001;-57
2022/11/22 01:29:48;;;;;;;24.42;11.98;;;;;;;3.25;48.07;99689.44;7394410;19;19994;-58
2022/11/22 01:32:14;;;;;;;21.50;11.73;;;;;;;3.23;48.22;99691.66;7394104;19;19991;-58
2022/11/22 01:34:40;;;;;;;25.92;12.63;;;;;;;3.33;48.05;99682.44;7396761;19;20202;-58
2022/11/22 01:37:05;;;;;;;25.77;13.88;;;;;;;3.32;48.15;99684.34;7394753;19;19995;-57
2022/11/22 01:39:31;;;;;;;24.55;12.52;;;;;;;3.38;48.07;99681.50;7394785;19;20062;-58
2022/11/22 01:41:57;;;;;;;27.20;13.20;;;;;;;3.38;48.19;99681.50;7393989;19;20016;-57
2022/11/22 01:44:26;;;;;;;25.58;13.48;;;;;;;3.41;47.99;99681.63;7395594;19;20466;-57
2022/11/22 01:47:20;;;;;;;25.52;12.50;;;;;;;3.38;48.14;99676.09;7393508;19;20003;-57
2022/11/22 01:49:45;;;;;;;26.53;11.67;;;;;;;3.44;47.98;99674.84;7394632;19;20455;-57
2022/11/22 01:52:20;;;;;;;25.08;12.63;;;;;;;3.29;48.49;99674.19;7393348;19;20290;-57
2022/11/22 01:54:58;;;;;;;29.15;14.02;;;;;;;3.34;48.31;99671.34;7394867;19;20010;-57
2022/11/22 01:57:31;;;;;;;28.42;13.45;;;;;;;3.24;48.54;99676.28;7396392;19;20066;-56
2022/11/22 02:00:01;;;;;;;27.17;13.82;;;;;;;3.25;48.83;99677.84;7392529;19;20493;-56
2022/11/22 02:02:27;;;;;;;31.55;14.10;;;;;;;3.27;48.57;99671.03;7395060;19;20017;-56
2022/11/22 02:04:55;;;;;;;26.52;12.73;;;;;;;3.28;48.74;99683.38;7392875;19;20007;-57
2022/11/22 02:07:26;;;;;;;28.38;14.55;;;;;;;3.35;48.53;99672.13;7393293;19;20033;-57
2022/11/22 02:09:52;;;;;;;28.25;14.20;;;;;;;3.42;48.47;99668.94;7395051;19;20099;-56
2022/11/22 02:12:29;;;;;;;29.17;14.32;;;;;;;3.37;48.37;99664.53;7394668;19;20006;-57
2022/11/22 02:14:55;;;;;;;32.30;14.55;;;;;;;3.39;48.42;99672.28;7394038;19;20361;-57
2022/11/22 02:17:20;;;;;;;31.88;14.60;;;;;;;3.49;48.31;99666.59;7394768;19;19999;-57
2022/11/22 02:19:49;;;;;;;32.95;15.35;;;;;;;3.49;48.35;99661.19;7393599;19;20514;-57
2022/11/22 02:22:18;;;;;;;28.77;14.73;;;;;;;3.49;48.47;99655.78;7391761;19;20555;-56
2022/11/22 02:24:54;;;;;;;31.10;15.35;;;;;;;3.48;48.31;99633.41;7394742;19;20003;-57
2022/11/22 02:27:19;;;;;;;34.40;16.08;;;;;;;3.42;48.64;99639.25;7394241;19;20003;-57
2022/11/22 02:29:45;;;;;;;34.88;15.63;;;;;;;3.40;48.73;99641.50;7391910;19;20007;-57
2022/11/22 02:32:11;;;;;;;34.33;15.57;;;;;;;3.24;49.02;99644.69;7391987;19;20032;-57
2022/11/22 02:34:45;;;;;;;32.15;16.00;;;;;;;3.39;48.79;99645.31;7392968;19;20010;-57
2022/11/22 02:37:13;;;;;;;31.17;14.63;;;;;;;3.49;48.53;99639.59;7393053;19;20474;-57
2022/11/22 02:39:42;;;;;;;36.58;15.35;;;;;;;3.45;48.81;99620.59;7392982;19;19999;-57
2022/11/22 02:42:08;;;;;;;34.08;15.23;;;;;;;3.57;48.59;99625.31;7391963;19;20133;-57
2022/11/22 02:44:34;;;;;;;36.78;16.25;;;;;;;3.55;48.65;99626.72;7394879;19;19998;-57
2022/11/22 02:46:59;;;;;;;37.17;15.80;;;;;;;3.59;48.55;99633.88;7392693;19;20099;-57
2022/11/22 02:49:25;;;;;;;38.40;16.10;;;;;;;3.45;48.88;99627.84;7394113;19;20503;-57
2022/11/22 02:51:52;;;;;;;36.42;16.65;;;;;;;3.44;49.03;99612.81;7391014;19;20481;-57
2022/11/22 02:54:18;;;;;;;36.65;16.90;;;;;;;3.46;49.11;99616.75;7391901;19;19995;-57
2022/11/22 02:56:44;;;;;;;39.72;16.92;;;;;;;3.47;49.17;99617.53;7392269;19;20019;-57
2022/11/22 02:59:10;;;;;;;36.35;16.88;;;;;;;3.47;49.10;99617.53;7390844;19;19990;-57
2022/11/22 03:01:36;;;;;;;38.58;17.30;;;;;;;3.59;49.15;99616.88;7392417;19;20006;-57
2022/11/22 03:04:01;;;;;;;37.42;17.20;;;;;;;3.63;49.06;99609.72;7391871;19;20028;-57
2022/11/22 03:06:27;;;;;;;42.38;18.48;;;;;;;3.55;49.45;99605.94;7392575;19;20070;-57
2022/11/22 03:08:53;;;;;;;41.58;19.13;;;;;;;3.55;49.49;99605.13;7392645;19;20499;-57
2022/11/22 03:11:18;;;;;;;42.60;17.58;;;;;;;3.59;49.51;99608.78;7392192;19;19994;-58
2022/11/22 03:13:44;;;;;;;38.55;17.15;;;;;;;3.48;49.60;99611.03;7392414;19;19995;-58
2022/11/22 03:16:10;;;;;;;40.28;17.08;;;;;;;3.63;49.63;99607.81;7389786;19;20000;-58
2022/11/22 03:18:36;;;;;;;39.10;16.55;;;;;;;3.53;49.75;99608.94;7390162;19;20063;-58
2022/11/22 03:21:07;;;;;;;39.78;17.67;;;;;;;3.57;49.89;99608.31;7391529;19;20006;-58
2022/11/22 03:23:33;;;;;;;38.58;17.75;;;;;;;3.55;50.01;99603.22;7392628;19;20002;-57
2022/11/22 03:26:05;;;;;;;42.47;18.55;;;;;;;3.55;50.23;99599.75;7392341;19;19995;-58
2022/11/22 03:28:30;;;;;;;42.05;17.67;;;;;;;3.58;49.97;99601.81;7392110;19;20003;-58
2022/11/22 03:30:56;;;;;;;38.63;17.15;;;;;;;3.58;50.04;99599.09;7389972;19;20022;-57
2022/11/22 03:33:22;;;;;;;43.95;18.05;;;;;;;3.56;50.12;99594.03;7392098;19;20003;-58
2022/11/22 03:35:47;;;;;;;43.20;18.48;;;;;;;3.46;50.62;99586.28;7391788;19;20020;-58
2022/11/22 03:38:13;;;;;;;40.13;17.88;;;;;;;3.58;50.26;99581.00;7392425;19;20020;-57
2022/11/22 03:40:38;;;;;;;40.50;18.25;;;;;;;3.53;50.41;99586.56;7391031;19;20410;-57
2022/11/22 03:43:04;;;;;;;42.00;18.38;;;;;;;3.44;50.63;99591.22;7392265;19;19994;-58
2022/11/22 03:45:30;;;;;;;43.92;18.77;;;;;;;3.42;50.83;99582.59;7391211;19;20066;-58
2022/11/22 03:47:56;;;;;;;38.35;17.98;;;;;;;3.47;50.81;99568.97;7391792;19;20624;-57
2022/11/22 03:50:23;;;;;;;38.35;17.83;;;;;;;3.64;50.44;99574.31;7392426;19;20003;-58
2022/11/22 03:52:48;;;;;;;38.22;17.52;;;;;;;3.62;50.35;99579.25;7389887;19;20011;-58
2022/11/22 03:55:14;;;;;;;38.88;17.45;;;;;;;3.54;50.88;99588.16;7390784;19;20418;-58
2022/11/22 03:57:40;;;;;;;37.70;18.20;;;;;;;3.59;50.65;99587.22;7391488;19;19995;-57
2022/11/22 04:00:06;;;;;;;39.58;17.65;;;;;;;3.63;50.81;99582.72;7388589;19;20006;-58
2022/11/22 04:02:32;;;;;;;37.97;16.60;;;;;;;3.66;50.58;99590.97;7390902;19;20020;-58
2022/11/22 04:04:58;;;;;;;37.55;17.42;;;;;;;3.64;50.89;99593.22;7390554;19;19995;-58
2022/11/22 04:07:23;;;;;;;39.28;17.08;;;;;;;3.66;50.69;99587.50;7391450;19;20007;-58
2022/11/22 04:09:49;;;;;;;37.30;17.10;;;;;;;3.71;50.62;99585.38;7390851;19;20359;-58
2022/11/22 04:12:14;;;;;;;40.75;17.85;;;;;;;3.65;50.83;99570.50;7388897;19;19999;-58
2022/11/22 04:17:39;;;;;;;37.55;17.40;;;;;;;3.66;50.90;99569.38;7390844;19;20082;-58
2022/11/22 04:22:59;;;;;;;39.25;17.10;;;;;;;3.68;50.86;99580.63;7391113;19;19999;-58
2022/11/22 04:25:27;;;;;;;37.60;17.63;;;;;;;3.62;51.10;99600.03;7390677;19;20005;-57
2022/11/22 04:27:53;;;;;;;36.42;17.10;;;;;;;3.75;50.75;99595.53;7394200;19;20003;-58
2022/11/22 04:30:19;;;;;;;36.00;17.40;;;;;;;3.67;51.13;99592.56;7398921;19;20438;-58
2022/11/22 04:32:45;;;;;;;33.42;16.70;;;;;;;3.73;50.92;99578.88;7398740;19;20070;-58
2022/11/22 04:35:17;;;;;;;36.33;17.25;;;;;;;3.77;50.62;99585.19;7398018;19;20026;-58
2022/11/22 04:37:50;;;;;;;33.00;16.27;;;;;;;3.80;50.84;99584.56;7397871;19;20023;-58
2022/11/22 04:40:15;;;;;;;31.27;15.85;;;;;;;3.80;50.65;99579.16;7396309;19;20006;-58
2022/11/22 04:45:25;;;;;;;34.03;17.00;;;;;;;3.88;50.76;99575.63;7397860;19;20006;-58
2022/11/22 04:47:59;;;;;;;33.78;16.27;;;;;;;3.76;50.96;99584.41;7397588;19;20342;-58
2022/11/22 04:53:15;;;;;;;33.60;16.30;;;;;;;3.78;50.78;99576.00;7397158;19;20018;-58
2022/11/22 04:55:43;;;;;;;30.45;15.70;;;;;;;3.74;51.22;99580.44;7396285;19;20013;-58
2022/11/22 04:58:09;;;;;;;32.60;15.63;;;;;;;3.87;50.87;99576.72;7397680;19;20021;-58
2022/11/22 05:00:35;;;;;;;35.28;16.10;;;;;;;3.86;50.92;99577.88;7397474;19;20027;-57
2022/11/22 05:03:02;;;;;;;33.55;15.40;;;;;;;3.81;51.01;99581.53;7397538;19;20006;-58
2022/11/22 05:05:28;;;;;;;32.45;15.95;;;;;;;3.78;51.25;99590.28;7396604;19;20007;-57
2022/11/22 05:07:54;;;;;;;32.75;15.65;;;;;;;3.82;51.05;99576.91;7398087;19;20025;-57
2022/11/22 05:10:19;;;;;;;33.00;15.90;;;;;;;3.78;51.36;99582.19;7396135;19;20026;-57
2022/11/22 05:12:45;;;;;;;33.47;15.80;;;;;;;3.77;51.03;99577.09;7397089;19;20339;-57
2022/11/22 05:15:11;;;;;;;33.63;16.33;;;;;;;3.94;50.96;99590.53;7397572;19;20006;-58
2022/11/22 05:17:38;;;;;;;30.33;15.43;;;;;;;3.95;51.09;99592.09;7397139;19;20006;-57
2022/11/22 05:20:05;;;;;;;32.63;15.40;;;;;;;3.97;51.24;99587.19;7394878;19;20009;-57
2022/11/22 05:25:17;;;;;;;34.65;15.57;;;;;;;3.91;51.41;99599.28;7396160;19;20006;-58
2022/11/22 05:27:43;;;;;;;31.88;14.43;;;;;;;4.02;51.13;99603.19;7396478;19;20006;-58
2022/11/22 05:30:09;;;;;;;31.50;15.05;;;;;;;4.01;50.93;99601.59;7395824;19;20109;-57
2022/11/22 05:32:35;;;;;;;33.83;15.43;;;;;;;3.93;51.32;99605.13;7396661;19;20022;-58
2022/11/22 05:35:01;;;;;;;30.73;14.80;;;;;;;3.89;51.31;99598.81;7396232;19;20454;-58
2022/11/22 05:37:26;;;;;;;31.63;14.80;;;;;;;3.91;51.40;99612.78;7395853;19;20453;-57
2022/11/22 05:39:52;;;;;;;28.25;14.65;;;;;;;3.87;51.59;99609.13;7392037;19;20010;-58
2022/11/22 05:42:18;;;;;;;32.13;15.07;;;;;;;3.83;51.47;99605.50;7395991;19;20010;-58
2022/11/22 05:44:44;;;;;;;29.80;13.35;;;;;;;3.82;51.80;99609.31;7393026;19;20003;-57
2022/11/22 05:47:09;;;;;;;28.67;14.52;;;;;;;3.81;51.72;99608.53;7395534;19;19995;-57
2022/11/22 05:49:35;;;;;;;30.73;14.75;;;;;;;3.83;51.88;99600.91;7395461;19;20563;-57
2022/11/22 05:52:02;;;;;;;29.40;14.35;;;;;;;3.91;51.40;99615.47;7393342;19;20020;-57
2022/11/22 05:54:28;;;;;;;29.25;14.35;;;;;;;3.92;51.70;99619.78;7396044;19;19991;-57
2022/11/22 05:56:54;;;;;;;32.05;15.55;;;;;;;3.88;51.72;99618.81;7394976;19;19994;-58
2022/11/22 05:59:20;;;;;;;27.52;14.02;;;;;;;3.96;51.63;99623.41;7394333;19;20573;-57
2022/11/22 06:01:45;;;;;;;31.42;14.98;;;;;;;3.81;51.85;99619.31;7393324;19;20008;-57
2022/11/22 06:04:18;;;;;;;31.02;14.45;;;;;;;3.82;52.14;99612.00;7394784;19;20482;-57
2022/11/22 06:06:46;;;;;;;30.77;14.95;;;;;;;3.89;51.89;99610.41;7392814;19;20018;-57
2022/11/22 06:09:11;;;;;;;30.20;14.68;;;;;;;3.99;51.43;99609.25;7395058;19;20040;-58
2022/11/22 06:11:37;;;;;;;34.60;15.45;;;;;;;3.96;51.54;99623.41;7392654;19;20002;-57
2022/11/22 06:14:02;;;;;;;33.38;15.77;;;;;;;3.98;51.68;99617.66;7395005;19;20050;-57
2022/11/22 06:16:28;;;;;;;30.80;14.70;;;;;;;4.05;51.51;99618.75;7394144;19;20010;-58
2022/11/22 06:18:54;;;;;;;32.78;16.45;;;;;;;4.05;51.55;99607.94;7391420;19;20474;-57
2022/11/22 06:21:24;;;;;;;33.03;16.02;;;;;;;3.95;51.81;99613.69;7394103;19;20089;-57
2022/11/22 06:23:54;;;;;;;33.65;15.25;;;;;;;4.02;51.72;99613.19;7395101;19;19999;-57
2022/11/22 06:26:27;;;;;;;29.50;14.90;;;;;;;4.06;51.59;99612.22;7394313;19;20006;-57
2022/11/22 06:28:54;;;;;;;29.02;15.48;;;;;;;3.97;51.68;99606.09;7392447;19;20021;-58
2022/11/22 06:31:22;;;;;;;29.85;15.00;;;;;;;3.98;51.94;99617.66;7391730;19;20101;-57
2022/11/22 06:33:49;;;;;;;32.42;15.25;;;;;;;4.04;51.62;99617.16;7392381;19;20467;-57
2022/11/22 06:36:17;;;;;;;29.40;14.07;;;;;;;4.07;51.59;99611.13;7391695;19;20062;-55
2022/11/22 06:38:44;;;;;;;31.20;14.95;;;;;;;4.07;51.61;99615.69;7393898;19;20022;-56
2022/11/22 06:41:12;;;;;;;33.58;15.38;;;;;;;4.02;51.67;99613.19;7393649;19;20463;-57
2022/11/22 06:43:39;;;;;;;33.65;15.88;;;;;;;4.08;51.54;99607.28;7394323;19;19999;-57
2022/11/22 06:46:06;;;;;;;31.05;15.35;;;;;;;4.10;51.51;99609.66;7393683;19;20067;-57
2022/11/22 06:48:34;;;;;;;30.27;15.05;;;;;;;4.09;51.62;99597.28;7393818;19;20040;-57
2022/11/22 06:51:05;;;;;;;31.90;15.60;;;;;;;4.06;51.50;99596.00;7391341;19;20111;-57
2022/11/22 06:53:32;;;;;;;33.55;15.80;;;;;;;4.06;51.72;99592.53;7393127;19;20504;-56
2022/11/22 06:56:00;;;;;;;32.83;15.77;;;;;;;4.03;51.63;99593.19;7393183;19;19999;-58
2022/11/22 06:58:26;;;;;;;33.08;15.65;;;;;;;3.94;52.20;99601.34;7391738;19;20062;-57
2022/11/22 07:00:51;;;;;;;30.52;15.50;;;;;;;4.08;51.83;99590.28;7392991;19;20006;-57
2022/11/22 07:03:17;;;;;;;36.35;18.77;;;;;;;4.14;51.56;99598.97;7391540;19;19999;-58
2022/11/22 07:05:52;;;;;;;31.60;16.23;;;;;;;4.09;52.08;99600.00;7391965;19;20002;-58
2022/11/22 07:08:18;;;;;;;33.17;16.80;;;;;;;4.14;51.71;99598.97;7392839;19;20040;-58
2022/11/22 07:10:43;;;;;;;31.35;15.70;;;;;;;4.15;51.81;99600.59;7392454;19;20003;-57
2022/11/22 07:13:09;;;;;;;30.60;16.40;;;;;;;4.18;51.89;99600.72;7392970;19;20002;-58
2022/11/22 07:15:35;;;;;;;34.05;15.85;;;;;;;4.20;51.73;99611.19;7392070;19;19999;-58
2022/11/22 07:18:00;;;;;;;30.80;15.77;;;;;;;4.12;51.74;99620.13;7392779;19;19998;-59
2022/11/22 07:20:26;;;;;;;35.35;17.27;;;;;;;4.26;51.75;99613.38;7390776;19;20006;-57
2022/11/22 07:22:52;;;;;;;37.70;17.10;;;;;;;4.23;51.77;99629.44;7392468;19;20470;-57
2022/11/22 07:25:17;;;;;;;35.65;17.63;;;;;;;4.25;51.90;99621.81;7391811;19;19998;-57
2022/11/22 07:27:43;;;;;;;34.85;16.75;;;;;;;4.26;51.72;99626.09;7392494;19;19994;-57
2022/11/22 07:30:09;;;;;;;37.03;17.52;;;;;;;4.19;51.93;99642.03;7391213;19;20024;-57
2022/11/22 07:32:35;;;;;;;38.13;17.90;;;;;;;4.23;51.83;99651.06;7390475;19;20003;-57
2022/11/22 07:35:00;;;;;;;37.53;18.08;;;;;;;4.28;51.85;99661.69;7391039;19;20002;-57
2022/11/22 07:37:26;;;;;;;32.78;16.73;;;;;;;4.24;52.04;99666.16;7392027;19;20002;-57
2022/11/22 07:39:53;;;;;;;36.40;17.05;;;;;;;4.19;52.25;99660.94;7388883;19;20002;-57
2022/11/22 07:42:18;;;;;;;35.60;17.45;;;;;;;4.26;51.86;99663.91;7391992;19;20074;-56
2022/11/22 07:44:44;;;;;;;31.75;16.88;;;;;;;4.24;52.05;99672.34;7391090;19;20349;-57
2022/11/22 07:47:09;;;;;;;36.05;18.35;;;;;;;4.24;52.17;99669.66;7391937;19;20046;-57
2022/11/22 07:49:35;;;;;;;35.65;17.13;;;;;;;4.14;52.38;99669.19;7391350;19;20379;-57
2022/11/22 07:52:01;;;;;;;33.33;17.20;;;;;;;4.24;51.90;99668.84;7388386;19;20366;-56
2022/11/22 07:54:26;;;;;;;35.22;16.75;;;;;;;4.32;51.97;99669.91;7390558;19;19998;-56
2022/11/22 07:56:52;;;;;;;31.52;16.75;;;;;;;4.39;51.60;99662.88;7391189;19;19991;-56
2022/11/22 07:59:18;;;;;;;34.72;17.02;;;;;;;4.46;51.52;99659.66;7388530;19;19999;-57
2022/11/22 08:01:44;;;;;;;38.55;17.55;;;;;;;4.47;51.44;99669.34;7388428;19;19998;-57
2022/11/22 08:04:09;;;;;;;36.60;17.83;;;;;;;4.39;51.96;99676.41;7389284;19;20014;-57
2022/11/22 08:06:35;;;;;;;33.92;16.83;;;;;;;4.37;52.07;99684.03;7390452;19;20032;-56
2022/11/22 08:09:00;;;;;;;34.83;16.40;;;;;;;4.42;51.94;99674.94;7391552;19;19994;-57
2022/11/22 08:11:26;;;;;;;31.23;16.23;;;;;;;4.26;52.21;99682.81;7390824;19;19999;-56
2022/11/22 08:13:52;;;;;;;33.92;17.35;;;;;;;4.32;52.30;99683.41;7391893;19;19990;-57
2022/11/22 08:16:18;;;;;;;33.88;17.30;;;;;;;4.44;52.01;99687.00;7387914;19;20518;-57
2022/11/22 08:18:48;;;;;;;37.70;17.27;;;;;;;4.46;51.92;99686.69;7388873;19;19998;-57
2022/11/22 08:21:15;;;;;;;33.45;16.35;;;;;;;4.33;52.40;99683.09;7389819;19;20021;-57
2022/11/22 08:23:42;;;;;;;34.78;16.83;;;;;;;4.54;52.02;99685.84;7388988;19;20474;-56
2022/11/22 08:26:11;;;;;;;34.30;17.83;;;;;;;4.52;51.90;99690.81;7390233;19;20003;-57
2022/11/22 08:28:37;;;;;;;37.58;17.05;;;;;;;4.57;51.99;99692.50;7390443;19;20091;-57
2022/11/22 08:31:07;;;;;;;34.92;17.08;;;;;;;4.53;52.18;99702.38;7389701;19;19998;-55
2022/11/22 08:33:33;;;;;;;32.90;17.35;;;;;;;4.59;51.92;99712.69;7390560;19;19999;-56
2022/11/22 08:35:59;;;;;;;33.45;16.52;;;;;;;4.67;51.79;99697.50;7387782;19;20007;-56
2022/11/22 08:38:25;;;;;;;34.72;16.75;;;;;;;4.64;51.93;99700.91;7388452;19;20009;-56
2022/11/22 08:40:51;;;;;;;34.42;17.88;;;;;;;4.62;51.94;99701.22;7389990;19;20013;-56
2022/11/22 08:43:17;;;;;;;32.80;16.83;;;;;;;4.54;52.09;99699.38;7388572;19;20038;-56
2022/11/22 08:45:43;;;;;;;32.95;17.17;;;;;;;4.39;52.72;99703.41;7389572;19;19998;-56
2022/11/22 08:48:09;;;;;;;33.42;17.05;;;;;;;4.53;52.22;99705.09;7389274;19;20018;-54
2022/11/22 08:50:35;;;;;;;34.30;17.17;;;;;;;4.57;52.13;99700.59;7389137;19;20002;-56
2022/11/22 08:53:00;;;;;;;36.30;17.40;;;;;;;4.66;51.99;99695.16;7387819;19;20010;-57
2022/11/22 08:55:26;;;;;;;32.83;16.40;;;;;;;4.73;52.02;99695.44;7389528;19;19994;-56
2022/11/22 08:57:52;;;;;;;31.55;16.63;;;;;;;4.68;51.99;99707.22;7390569;19;20111;-56
2022/11/22 09:00:18;;;;;;;34.30;18.52;;;;;;;4.73;52.05;99708.94;7386324;19;20010;-57
2022/11/22 09:02:43;;;;;;;33.40;16.83;;;;;;;4.70;52.12;99721.19;7390832;19;20003;-56
2022/11/22 09:05:09;;;;;;;32.90;15.75;;;;;;;4.60;52.51;99724.28;7389253;19;20002;-56
2022/11/22 09:07:37;;;;;;;36.75;17.23;;;;;;;4.68;52.29;99720.75;7388751;19;20331;-56
2022/11/22 09:10:04;;;;;;;37.13;18.73;;;;;;;4.75;51.89;99726.41;7389416;19;20006;-56
2022/11/22 09:12:30;;;;;;;34.80;17.33;;;;;;;4.80;52.01;99726.22;7390082;19;19998;-56
2022/11/22 09:14:55;;;;;;;33.95;16.58;;;;;;;4.83;51.97;99722.84;7393360;19;20300;-55
2022/11/22 09:17:21;;;;;;;36.92;18.00;;;;;;;4.78;52.21;99722.28;7396410;19;20367;-56
2022/11/22 09:19:47;;;;;;;32.95;16.33;;;;;;;4.91;51.94;99723.94;7395252;19;20007;-56
2022/11/22 09:22:12;;;;;;;32.30;15.60;;;;;;;4.90;52.03;99725.03;7392827;19;20062;-55
2022/11/22 09:24:38;;;;;;;31.75;16.15;;;;;;;4.98;51.79;99729.59;7396384;19;19995;-56
2022/11/22 09:27:03;;;;;;;30.33;16.30;;;;;;;5.07;51.80;99726.81;7395278;19;20002;-55
2022/11/22 09:29:29;;;;;;;32.78;16.88;;;;;;;5.01;51.80;99728.94;7395797;19;20005;-57
2022/11/22 09:31:56;;;;;;;32.00;15.80;;;;;;;4.94;52.09;99734.09;7395759;19;20588;-57
2022/11/22 09:34:22;;;;;;;35.72;18.00;;;;;;;4.76;52.32;99735.34;7400240;19;20103;-57
2022/11/22 09:36:47;;;;;;;31.85;16.10;;;;;;;4.86;52.54;99731.47;7394228;19;20006;-57
2022/11/22 09:39:13;;;;;;;34.10;17.38;;;;;;;4.91;52.21;99723.16;7393259;19;20002;-57
2022/11/22 09:41:39;;;;;;;31.98;15.88;;;;;;;5.07;52.12;99726.81;7393062;19;20027;-57
2022/11/22 09:44:08;;;;;;;30.83;15.57;;;;;;;5.09;52.05;99731.91;7395415;19;20458;-57
2022/11/22 09:46:51;;;;;;;32.85;16.50;;;;;;;5.15;51.91;99728.66;7395179;19;20012;-57
2022/11/22 09:49:27;;;;;;;30.15;15.23;;;;;;;5.22;51.85;99736.25;7395253;19;20359;-58
2022/11/22 09:52:40;;;;;;;31.95;15.23;;;;;;;5.18;52.16;99733.44;7392473;19;20010;-57
2022/11/22 09:55:21;;;;;;;31.40;15.38;;;;;;;5.28;51.67;99739.56;7394182;19;20467;-57
2022/11/22 09:58:04;;;;;;;30.45;15.38;;;;;;;5.23;51.93;99737.84;7391616;19;20020;-58
2022/11/22 10:00:30;;;;;;;34.30;16.25;;;;;;;5.18;52.20;99738.06;7392887;19;20110;-58
2022/11/22 10:03:03;;;;;;;29.88;15.10;;;;;;;5.27;51.92;99738.75;7394198;19;19998;-58
2022/11/22 10:05:37;;;;;;;30.25;14.80;;;;;;;5.40;51.84;99744.28;7392273;19;20002;-58
2022/11/22 10:08:31;;;;;;;31.90;15.13;;;;;;;5.42;51.67;99752.84;7394262;19;20356;-58
2022/11/22 10:11:00;;;;;;;28.77;15.43;;;;;;;5.53;51.61;99752.09;7392940;19;19995;-58
2022/11/22 10:13:50;;;;;;;28.73;15.18;;;;;;;5.63;51.51;99761.72;7391643;19;20490;-58
2022/11/22 10:16:33;;;;;;;29.42;14.90;;;;;;;5.66;51.54;99752.94;7394496;19;20011;-58
2022/11/22 10:19:12;;;;;;;28.35;14.88;;;;;;;5.78;51.50;99748.69;7391631;19;20015;-58
2022/11/22 10:21:38;;;;;;;33.70;15.45;;;;;;;5.82;51.42;99750.38;7390826;19;20017;-58
2022/11/22 10:24:04;;;;;;;30.63;14.70;;;;;;;5.75;51.67;99745.50;7392178;19;19998;-58
2022/11/22 10:26:32;;;;;;;26.85;14.60;;;;;;;5.77;51.64;99747.91;7392814;19;20008;-59
2022/11/22 10:28:58;;;;;;;33.95;15.10;;;;;;;5.71;51.76;99741.91;7394358;19;19999;-58
2022/11/22 10:32:02;;;;;;;28.25;14.18;;;;;;;5.66;52.21;99749.44;7390740;19;20019;-58
2022/11/22 10:34:46;;;;;;;28.85;14.48;;;;;;;5.81;51.78;99743.41;7393797;19;19990;-58
2022/11/22 10:37:31;;;;;;;31.23;15.48;;;;;;;5.89;51.66;99745.25;7393831;19;20007;-58
2022/11/22 10:40:15;;;;;;;;;;;;;;;5.80;52.41;99741.81;7390786;19;20409;-58
2022/11/22 10:42:58;;;;;;;32.42;13.60;;;;;;;5.89;51.82;99730.88;7392960;19;20356;-58
2022/11/22 10:45:35;;;;;;;28.20;13.95;;;;;;;6.04;51.26;99729.44;7392825;19;20006;-58
2022/11/22 10:48:30;;;;;;;32.95;15.65;;;;;;;6.06;51.73;99733.41;7394284;19;20154;-58
2022/11/22 10:50:58;;;;;;;34.05;14.30;;;;;;;6.15;51.66;99732.53;7388918;19;20470;-58
2022/11/22 10:53:39;;;;;;;26.73;13.38;;;;;;;6.25;51.49;99732.84;7391427;19;20502;-58
2022/11/22 10:56:09;;;;;;;26.55;14.10;;;;;;;6.23;51.31;99728.91;7392745;19;20010;-58
2022/11/22 10:58:54;;;;;;;27.20;13.82;;;;;;;6.21;51.69;99737.38;7393138;19;20014;-58
2022/11/22 11:01:49;;;;;;;27.13;13.23;;;;;;;6.17;52.11;99744.59;7390429;19;19995;-59
2022/11/22 11:04:18;;;;;;;27.23;14.00;;;;;;;6.23;51.77;99737.84;7390209;19;20081;-59
2022/11/22 11:06:49;;;;;;;28.10;13.73;;;;;;;6.30;51.43;99731.84;7390059;19;20010;-59
2022/11/22 11:09:22;;;;;;;30.48;14.77;;;;;;;6.30;51.63;99735.34;7391744;19;20006;-58
2022/11/22 11:11:50;;;;;;;26.27;14.03;;;;;;;6.32;51.58;99726.88;7388923;19;20025;-58
2022/11/22 11:14:31;;;;;;;27.55;14.48;;;;;;;6.31;51.55;99731.50;7391013;19;20004;-59
2022/11/22 11:16:59;;;;;;;29.85;14.20;;;;;;;6.28;51.74;99726.00;7391993;19;20003;-58
2022/11/22 11:19:29;;;;;;;26.52;12.93;;;;;;;6.29;51.76;99722.94;7390111;19;19994;-59
2022/11/22 11:22:21;;;;;;;29.45;14.48;;;;;;;6.44;51.83;99716.06;7389228;19;20038;-59
2022/11/22 11:24:47;;;;;;;25.15;13.23;;;;;;;6.48;51.59;99721.59;7390103;19;19999;-58
2022/11/22 11:27:15;;;;;;;26.92;12.43;;;;;;;6.60;51.25;99726.19;7390665;19;20014;-59
2022/11/22 11:29:46;;;;;;;26.20;13.23;;;;;;;6.54;51.31;99725.63;7391182;19;19995;-59
2022/11/22 11:32:18;;;;;;;25.63;13.25;;;;;;;6.53;51.54;99731.38;7390290;19;20012;-59
2022/11/22 11:35:00;;;;;;;26.20;13.65;;;;;;;6.63;51.35;99725.53;7389857;19;20013;-60
2022/11/22 11:37:31;;;;;;;30.73;14.10;;;;;;;6.67;51.24;99724.47;7389916;19;20461;-59
2022/11/22 11:39:57;;;;;;;26.85;13.60;;;;;;;6.68;51.41;99715.22;7388017;19;20349;-60
2022/11/22 11:42:33;;;;;;;27.25;12.70;;;;;;;6.66;51.47;99712.06;7390221;19;20013;-60
2022/11/22 11:45:24;;;;;;;27.35;14.15;;;;;;;6.67;51.53;99702.78;7388704;19;20014;-59
2022/11/22 11:47:50;;;;;;;24.58;12.93;;;;;;;6.67;51.41;99710.94;7390143;19;20006;-59